sensor_id;sensor_type;location;lat;lon;timestamp;pressure;altitude;pressure_sealevel;temperature;humidity
71194;BME280;58903;47.210;8.618;2023-09-19T00:00:16;94166.16;;;29.09;40.68
71194;BME280;58903;47.210;8.618;2023-09-19T00:03:15;94173.94;;;29.10;40.56
71194;BME280;58903;47.210;8.618;2023-09-19T00:05:41;94179.47;;;29.10;40.14
71194;BME280;58903;47.210;8.618;2023-09-19T00:08:10;94189.06;;;29.09;40.67
71194;BME280;58903;47.210;8.618;2023-09-19T00:10:45;94179.47;;;29.10;41.28
71194;BME280;58903;47.210;8.618;2023-09-19T00:13:23;94177.25;;;29.09;40.61
71194;BME280;58903;47.210;8.618;2023-09-19T00:16:08;94186.81;;;29.08;40.52
71194;BME280;58903;47.210;8.618;2023-09-19T00:18:47;94185.91;;;29.05;41.16
71194;BME280;58903;47.210;8.618;2023-09-19T00:21:25;94190.13;;;29.06;40.16
71194;BME280;58903;47.210;8.618;2023-09-19T00:23:58;94194.94;;;29.06;40.25
71194;BME280;58903;47.210;8.618;2023-09-19T00:26:26;94187.16;;;29.04;40.29
71194;BME280;58903;47.210;8.618;2023-09-19T00:28:56;94181.63;;;29.04;41.16
71194;BME280;58903;47.210;8.618;2023-09-19T00:31:25;94183.13;;;29.05;40.81
71194;BME280;58903;47.210;8.618;2023-09-19T00:33:55;94179.41;;;29.03;40.77
71194;BME280;58903;47.210;8.618;2023-09-19T00:36:25;94183.44;;;29.02;40.96
71194;BME280;58903;47.210;8.618;2023-09-19T00:38:51;94189.72;;;29.02;40.29
71194;BME280;58903;47.210;8.618;2023-09-19T00:41:21;94183.25;;;29.00;40.40
71194;BME280;58903;47.210;8.618;2023-09-19T00:43:51;94183.44;;;29.02;40.75
71194;BME280;58903;47.210;8.618;2023-09-19T00:46:17;94182.69;;;29.01;40.05
71194;BME280;58903;47.210;8.618;2023-09-19T00:48:43;94178.25;;;28.98;40.68
71194;BME280;58903;47.210;8.618;2023-09-19T00:51:10;94171.97;;;28.98;40.76
71194;BME280;58903;47.210;8.618;2023-09-19T00:53:38;94174.94;;;29.00;40.03
71194;BME280;58903;47.210;8.618;2023-09-19T00:56:05;94161.84;;;29.00;40.20
71194;BME280;58903;47.210;8.618;2023-09-19T00:58:36;94163.84;;;29.00;40.71
71194;BME280;58903;47.210;8.618;2023-09-19T01:01:04;94161.63;;;28.98;40.15
71194;BME280;58903;47.210;8.618;2023-09-19T01:03:44;94166.22;;;28.96;40.84
71194;BME280;58903;47.210;8.618;2023-09-19T01:06:10;94179.00;;;28.99;40.50
71194;BME280;58903;47.210;8.618;2023-09-19T01:08:38;94177.28;;;28.96;41.03
71194;BME280;58903;47.210;8.618;2023-09-19T01:11:43;94186.56;;;28.98;40.06
71194;BME280;58903;47.210;8.618;2023-09-19T01:32:21;94199.25;;;28.94;40.70
71194;BME280;58903;47.210;8.618;2023-09-19T01:34:59;94199.44;;;28.96;40.25
71194;BME280;58903;47.210;8.618;2023-09-19T01:37:30;94195.72;;;28.93;40.81
71194;BME280;58903;47.210;8.618;2023-09-19T01:40:07;94195.72;;;28.93;40.69
71194;BME280;58903;47.210;8.618;2023-09-19T01:45:52;94204.03;;;28.93;41.04
71194;BME280;58903;47.210;8.618;2023-09-19T01:51:34;94201.81;;;28.92;41.15
71194;BME280;58903;47.210;8.618;2023-09-19T01:54:12;94206.59;;;28.91;40.78
71194;BME280;58903;47.210;8.618;2023-09-19T02:00:01;94211.59;;;28.93;40.63
71194;BME280;58903;47.210;8.618;2023-09-19T02:02:46;94205.31;;;28.92;40.50
71194;BME280;58903;47.210;8.618;2023-09-19T02:05:29;94206.06;;;28.93;40.79
71194;BME280;58903;47.210;8.618;2023-09-19T02:07:56;94206.81;;;28.93;40.76
71194;BME280;58903;47.210;8.618;2023-09-19T02:10:23;94196.06;;;28.90;40.12
71194;BME280;58903;47.210;8.618;2023-09-19T02:12:57;94203.81;;;28.91;41.23
71194;BME280;58903;47.210;8.618;2023-09-19T02:15:46;94199.16;;;28.86;41.04
71194;BME280;58903;47.210;8.618;2023-09-19T02:18:15;94203.63;;;28.89;40.38
71194;BME280;58903;47.210;8.618;2023-09-19T02:20:53;94206.59;;;28.91;40.03
71194;BME280;58903;47.210;8.618;2023-09-19T02:23:19;94203.63;;;28.89;40.95
71194;BME280;58903;47.210;8.618;2023-09-19T02:25:59;94208.41;;;28.89;41.02
71194;BME280;58903;47.210;8.618;2023-09-19T02:28:29;94210.66;;;28.90;40.98
71194;BME280;58903;47.210;8.618;2023-09-19T02:31:00;94214.50;;;28.87;40.03
71194;BME280;58903;47.210;8.618;2023-09-19T02:33:45;94216.72;;;28.89;41.13
71194;BME280;58903;47.210;8.618;2023-09-19T02:36:15;94216.19;;;28.90;40.68
71194;BME280;58903;47.210;8.618;2023-09-19T02:38:46;94218.00;;;28.88;40.35
71194;BME280;58903;47.210;8.618;2023-09-19T02:41:13;94223.53;;;28.88;40.19
71194;BME280;58903;47.210;8.618;2023-09-19T02:43:39;94217.25;;;28.87;40.01
71194;BME280;58903;47.210;8.618;2023-09-19T02:46:07;94224.28;;;28.88;40.54
71194;BME280;58903;47.210;8.618;2023-09-19T02:48:35;94217.25;;;28.87;40.13
71194;BME280;58903;47.210;8.618;2023-09-19T02:51:01;94221.50;;;28.88;40.55
71194;BME280;58903;47.210;8.618;2023-09-19T02:53:30;94224.81;;;28.87;40.52
71194;BME280;58903;47.210;8.618;2023-09-19T02:56:00;94227.78;;;28.89;40.94
71194;BME280;58903;47.210;8.618;2023-09-19T02:58:36;94225.56;;;28.87;40.42
71194;BME280;58903;47.210;8.618;2023-09-19T03:01:28;94228.88;;;28.86;40.71
71194;BME280;58903;47.210;8.618;2023-09-19T03:04:03;94231.66;;;28.86;40.35
71194;BME280;58903;47.210;8.618;2023-09-19T03:06:31;94221.28;;;28.86;40.66
71194;BME280;58903;47.210;8.618;2023-09-19T03:09:08;94233.88;;;28.87;40.29
71194;BME280;58903;47.210;8.618;2023-09-19T03:11:42;94227.03;;;28.88;41.07
71194;BME280;58903;47.210;8.618;2023-09-19T03:14:35;94226.31;;;28.88;40.93
71194;BME280;58903;47.210;8.618;2023-09-19T03:17:10;94224.06;;;28.86;40.39
71194;BME280;58903;47.210;8.618;2023-09-19T03:19:40;94221.63;;;28.83;40.94
71194;BME280;58903;47.210;8.618;2023-09-19T03:22:18;94231.44;;;28.84;40.71
71194;BME280;58903;47.210;8.618;2023-09-19T03:25:09;94224.59;;;28.85;40.96
71194;BME280;58903;47.210;8.618;2023-09-19T03:27:44;94224.41;;;28.83;40.59
71194;BME280;58903;47.210;8.618;2023-09-19T03:30:45;94222.38;;;28.83;40.46
71194;BME280;58903;47.210;8.618;2023-09-19T03:33:27;94224.94;;;28.81;40.74
71194;BME280;58903;47.210;8.618;2023-09-19T03:36:04;94219.41;;;28.81;40.88
71194;BME280;58903;47.210;8.618;2023-09-19T03:38:41;94216.84;;;28.83;40.18
71194;BME280;58903;47.210;8.618;2023-09-19T03:41:15;94208.34;;;28.81;40.83
71194;BME280;58903;47.210;8.618;2023-09-19T03:43:53;94215.34;;;28.82;40.42
71194;BME280;58903;47.210;8.618;2023-09-19T03:46:24;94213.13;;;28.81;40.68
71194;BME280;58903;47.210;8.618;2023-09-19T03:48:50;94220.69;;;28.80;40.13
71194;BME280;58903;47.210;8.618;2023-09-19T03:51:19;94218.66;;;28.81;40.95
71194;BME280;58903;47.210;8.618;2023-09-19T03:53:57;94221.44;;;28.81;40.14
71194;BME280;58903;47.210;8.618;2023-09-19T03:56:24;94220.69;;;28.80;40.77
71194;BME280;58903;47.210;8.618;2023-09-19T03:59:18;94223.44;;;28.80;40.28
71194;BME280;58903;47.210;8.618;2023-09-19T04:02:14;94217.16;;;28.80;40.61
71194;BME280;58903;47.210;8.618;2023-09-19T04:04:52;94205.38;;;28.79;40.83
71194;BME280;58903;47.210;8.618;2023-09-19T04:07:18;94202.06;;;28.81;40.22
71194;BME280;58903;47.210;8.618;2023-09-19T04:10:10;94206.84;;;28.80;40.52
71194;BME280;58903;47.210;8.618;2023-09-19T04:16:58;94196.09;;;28.77;40.81
71194;BME280;58903;47.210;8.618;2023-09-19T04:19:27;94194.19;;;28.72;40.52
71194;BME280;58903;47.210;8.618;2023-09-19T04:21:54;94195.16;;;28.74;40.16
71194;BME280;58903;47.210;8.618;2023-09-19T04:24:31;94194.59;;;28.76;40.28
71194;BME280;58903;47.210;8.618;2023-09-19T04:27:16;94200.13;;;28.76;40.83
71194;BME280;58903;47.210;8.618;2023-09-19T04:29:43;94192.19;;;28.72;40.05
71194;BME280;58903;47.210;8.618;2023-09-19T04:32:30;94198.66;;;28.75;40.40
71194;BME280;58903;47.210;8.618;2023-09-19T04:34:58;94201.09;;;28.78;40.91
71194;BME280;58903;47.210;8.618;2023-09-19T04:37:27;94206.63;;;28.78;40.70
71194;BME280;58903;47.210;8.618;2023-09-19T04:39:56;94214.94;;;28.78;41.12
71194;BME280;58903;47.210;8.618;2023-09-19T04:42:38;94211.97;;;28.76;40.49
71194;BME280;58903;47.210;8.618;2023-09-19T04:45:20;94225.81;;;28.76;41.04
71194;BME280;58903;47.210;8.618;2023-09-19T04:48:26;94225.06;;;28.76;40.92
71194;BME280;58903;47.210;8.618;2023-09-19T04:50:58;94225.59;;;28.74;40.92
71194;BME280;58903;47.210;8.618;2023-09-19T04:53:25;94222.63;;;28.72;40.64
71194;BME280;58903;47.210;8.618;2023-09-19T04:55:57;94236.13;;;28.76;39.99
71194;BME280;58903;47.210;8.618;2023-09-19T04:58:23;94231.13;;;28.74;40.71
71194;BME280;58903;47.210;8.618;2023-09-19T05:00:54;94239.66;;;28.76;40.49
71194;BME280;58903;47.210;8.618;2023-09-19T05:03:22;94240.41;;;28.77;40.69
71194;BME280;58903;47.210;8.618;2023-09-19T05:05:49;94233.91;;;28.74;40.25
71194;BME280;58903;47.210;8.618;2023-09-19T05:08:15;94242.97;;;28.75;40.83
71194;BME280;58903;47.210;8.618;2023-09-19T05:10:41;94247.75;;;28.74;41.35
71194;BME280;58903;47.210;8.618;2023-09-19T05:13:36;94252.72;;;28.76;41.01
71194;BME280;58903;47.210;8.618;2023-09-19T05:16:05;94253.28;;;28.74;40.50
71194;BME280;58903;47.210;8.618;2023-09-19T05:18:45;94262.53;;;28.77;41.10
71194;BME280;58903;47.210;8.618;2023-09-19T05:21:25;94258.28;;;28.76;40.61
71194;BME280;58903;47.210;8.618;2023-09-19T05:23:55;94260.63;;;28.72;40.79
71194;BME280;58903;47.210;8.618;2023-09-19T05:26:26;94269.88;;;28.74;41.34
71194;BME280;58903;47.210;8.618;2023-09-19T05:29:06;94268.81;;;28.77;41.39
71194;BME280;58903;47.210;8.618;2023-09-19T05:31:34;94270.84;;;28.77;41.33
71194;BME280;58903;47.210;8.618;2023-09-19T05:34:18;94270.09;;;28.76;41.07
71194;BME280;58903;47.210;8.618;2023-09-19T05:37:03;94270.63;;;28.75;43.80
71194;BME280;58903;47.210;8.618;2023-09-19T05:39:38;94277.34;;;28.79;41.81
71194;BME280;58903;47.210;8.618;2023-09-19T05:42:04;94281.38;;;28.78;41.88
71194;BME280;58903;47.210;8.618;2023-09-19T05:44:42;94281.72;;;28.75;41.81
71194;BME280;58903;47.210;8.618;2023-09-19T05:47:19;94301.81;;;28.75;41.58
71194;BME280;58903;47.210;8.618;2023-09-19T05:49:56;94305.31;;;28.76;41.76
71194;BME280;58903;47.210;8.618;2023-09-19T05:52:25;94305.31;;;28.76;40.95
71194;BME280;58903;47.210;8.618;2023-09-19T05:57:56;94311.41;;;28.74;41.23
71194;BME280;58903;47.210;8.618;2023-09-19T06:00:41;94319.72;;;28.74;41.43
71194;BME280;58903;47.210;8.618;2023-09-19T06:03:08;94314.16;;;28.74;40.89
71194;BME280;58903;47.210;8.618;2023-09-19T06:05:36;94318.22;;;28.73;41.97
71194;BME280;58903;47.210;8.618;2023-09-19T06:08:07;94316.19;;;28.74;41.57
71194;BME280;58903;47.210;8.618;2023-09-19T06:10:53;94322.47;;;28.74;41.41
71194;BME280;58903;47.210;8.618;2023-09-19T06:13:19;94322.69;;;28.76;41.13
71194;BME280;58903;47.210;8.618;2023-09-19T06:15:58;94322.28;;;28.72;41.27
71194;BME280;58903;47.210;8.618;2023-09-19T06:18:35;94321.50;;;28.72;41.63
71194;BME280;58903;47.210;8.618;2023-09-19T06:21:02;94322.06;;;28.70;41.75
71194;BME280;58903;47.210;8.618;2023-09-19T06:23:34;94311.00;;;28.70;41.46
71194;BME280;58903;47.210;8.618;2023-09-19T06:26:03;94313.97;;;28.72;41.80
71194;BME280;58903;47.210;8.618;2023-09-19T06:28:43;94311.19;;;28.72;41.83
71194;BME280;58903;47.210;8.618;2023-09-19T06:31:11;94314.50;;;28.71;41.64
71194;BME280;58903;47.210;8.618;2023-09-19T06:33:39;94317.47;;;28.73;41.29
71194;BME280;58903;47.210;8.618;2023-09-19T06:36:37;94313.41;;;28.74;41.04
71194;BME280;58903;47.210;8.618;2023-09-19T06:39:05;94315.44;;;28.73;41.84
71194;BME280;58903;47.210;8.618;2023-09-19T06:41:53;94325.25;;;28.74;41.01
71194;BME280;58903;47.210;8.618;2023-09-19T06:44:21;94317.28;;;28.71;41.29
71194;BME280;58903;47.210;8.618;2023-09-19T06:47:05;94311.19;;;28.72;41.65
71194;BME280;58903;47.210;8.618;2023-09-19T06:49:49;94325.78;;;28.73;41.71
71194;BME280;58903;47.210;8.618;2023-09-19T06:52:28;94324.50;;;28.74;40.99
71194;BME280;58903;47.210;8.618;2023-09-19T06:54:57;94335.56;;;28.74;40.77
71194;BME280;58903;47.210;8.618;2023-09-19T06:58:00;94333.53;;;28.74;40.77
71194;BME280;58903;47.210;8.618;2023-09-19T07:00:26;94334.59;;;28.71;41.43
71194;BME280;58903;47.210;8.618;2023-09-19T07:03:08;94346.97;;;28.70;41.70
71194;BME280;58903;47.210;8.618;2023-09-19T07:05:48;94348.44;;;28.71;41.65
71194;BME280;58903;47.210;8.618;2023-09-19T07:08:16;94340.69;;;28.70;41.82
71194;BME280;58903;47.210;8.618;2023-09-19T07:10:51;94351.75;;;28.70;41.76
71194;BME280;58903;47.210;8.618;2023-09-19T07:13:21;94347.72;;;28.71;41.02
71194;BME280;58903;47.210;8.618;2023-09-19T07:15:47;94354.94;;;28.74;40.89
71194;BME280;58903;47.210;8.618;2023-09-19T07:18:14;94362.50;;;28.73;41.70
71194;BME280;58903;47.210;8.618;2023-09-19T07:20:50;94351.00;;;28.69;41.44
71194;BME280;58903;47.210;8.618;2023-09-19T07:26:39;94363.56;;;28.70;40.82
71194;BME280;58903;47.210;8.618;2023-09-19T07:29:05;94366.13;;;28.68;41.46
71194;BME280;58903;47.210;8.618;2023-09-19T07:31:34;94367.59;;;28.69;41.79
71194;BME280;58903;47.210;8.618;2023-09-19T07:34:05;94374.66;;;28.70;41.27
71194;BME280;58903;47.210;8.618;2023-09-19T07:36:35;94374.66;;;28.70;41.36
71194;BME280;58903;47.210;8.618;2023-09-19T07:39:05;94377.63;;;28.72;41.88
71194;BME280;58903;47.210;8.618;2023-09-19T07:41:40;94373.69;;;28.68;41.17
71194;BME280;58903;47.210;8.618;2023-09-19T07:44:08;94383.47;;;28.69;41.58
71194;BME280;58903;47.210;8.618;2023-09-19T07:46:53;94375.91;;;28.69;41.48
71194;BME280;58903;47.210;8.618;2023-09-19T07:49:21;94379.44;;;28.70;40.76
71194;BME280;58903;47.210;8.618;2023-09-19T07:51:52;94393.28;;;28.70;41.06
71194;BME280;58903;47.210;8.618;2023-09-19T07:54:20;94386.78;;;28.67;41.83
71194;BME280;58903;47.210;8.618;2023-09-19T07:56:48;94393.06;;;28.68;41.91
71194;BME280;58903;47.210;8.618;2023-09-19T07:59:15;94386.97;;;28.69;42.05
71194;BME280;58903;47.210;8.618;2023-09-19T08:01:42;94398.06;;;28.69;41.06
71194;BME280;58903;47.210;8.618;2023-09-19T08:04:21;94398.81;;;28.70;41.59
71194;BME280;58903;47.210;8.618;2023-09-19T08:06:47;94394.53;;;28.69;41.11
71194;BME280;58903;47.210;8.618;2023-09-19T08:09:17;94392.72;;;28.71;41.68
71194;BME280;58903;47.210;8.618;2023-09-19T08:11:47;94402.53;;;28.72;41.65
71194;BME280;58903;47.210;8.618;2023-09-19T08:14:13;94398.47;;;28.73;41.26
71194;BME280;58903;47.210;8.618;2023-09-19T08:16:45;94408.63;;;28.71;41.80
71194;BME280;58903;47.210;8.618;2023-09-19T08:19:11;94407.88;;;28.70;41.52
71194;BME280;58903;47.210;8.618;2023-09-19T08:21:47;94404.13;;;28.68;41.57
71194;BME280;58903;47.210;8.618;2023-09-19T08:24:14;94407.66;;;28.68;40.93
71194;BME280;58903;47.210;8.618;2023-09-19T08:26:42;94406.91;;;28.68;41.34
71194;BME280;58903;47.210;8.618;2023-09-19T08:29:18;94415.19;;;28.68;40.86
71194;BME280;58903;47.210;8.618;2023-09-19T08:31:47;94419.22;;;28.67;41.36
71194;BME280;58903;47.210;8.618;2023-09-19T08:34:18;94418.50;;;28.66;41.10
71194;BME280;58903;47.210;8.618;2023-09-19T08:36:53;94413.19;;;28.68;41.31
71194;BME280;58903;47.210;8.618;2023-09-19T08:39:25;94424.25;;;28.68;41.31
71194;BME280;58903;47.210;8.618;2023-09-19T08:42:11;94420.72;;;28.68;41.77
71194;BME280;58903;47.210;8.618;2023-09-19T08:44:48;94424.25;;;28.68;41.73
71194;BME280;58903;47.210;8.618;2023-09-19T08:47:28;94418.72;;;28.68;40.75
71194;BME280;58903;47.210;8.618;2023-09-19T08:50:39;94416.69;;;28.69;41.60
71194;BME280;58903;47.210;8.618;2023-09-19T08:53:21;94426.28;;;28.68;41.72
71194;BME280;58903;47.210;8.618;2023-09-19T08:55:53;94423.50;;;28.68;41.39
71194;BME280;58903;47.210;8.618;2023-09-19T08:58:27;94431.06;;;28.67;40.91
71194;BME280;58903;47.210;8.618;2023-09-19T09:01:04;94432.34;;;28.66;40.56
71194;BME280;58903;47.210;8.618;2023-09-19T09:04:06;94434.03;;;28.69;41.50
71194;BME280;58903;47.210;8.618;2023-09-19T09:07:06;94433.28;;;28.69;41.40
71194;BME280;58903;47.210;8.618;2023-09-19T09:09:42;94436.06;;;28.69;41.23
71194;BME280;58903;47.210;8.618;2023-09-19T09:12:24;94428.50;;;28.69;41.57
71194;BME280;58903;47.210;8.618;2023-09-19T09:15:00;94434.03;;;28.69;41.33
71194;BME280;58903;47.210;8.618;2023-09-19T09:17:29;94427.03;;;28.68;41.13
71194;BME280;58903;47.210;8.618;2023-09-19T09:19:57;94435.53;;;28.70;40.87
71194;BME280;58903;47.210;8.618;2023-09-19T09:22:27;94435.53;;;28.70;41.60
71194;BME280;58903;47.210;8.618;2023-09-19T09:24:59;94435.53;;;28.70;41.61
71194;BME280;58903;47.210;8.618;2023-09-19T09:27:30;94438.31;;;28.70;41.15
71194;BME280;58903;47.210;8.618;2023-09-19T09:29:57;94431.06;;;28.67;41.12
71194;BME280;58903;47.210;8.618;2023-09-19T09:32:34;94442.34;;;28.69;41.48
71194;BME280;58903;47.210;8.618;2023-09-19T09:35:07;94436.81;;;28.69;40.83
71194;BME280;58903;47.210;8.618;2023-09-19T09:37:43;94437.34;;;28.68;41.32
71194;BME280;58903;47.210;8.618;2023-09-19T09:40:13;94439.34;;;28.67;40.63
71194;BME280;58903;47.210;8.618;2023-09-19T09:42:44;94434.16;;;28.64;41.03
71194;BME280;58903;47.210;8.618;2023-09-19T09:45:23;94427.84;;;28.63;41.27
71194;BME280;58903;47.210;8.618;2023-09-19T09:48:00;94433.59;;;28.65;41.53
71194;BME280;58903;47.210;8.618;2023-09-19T09:50:30;94433.81;;;28.67;40.93
71194;BME280;58903;47.210;8.618;2023-09-19T09:53:27;94430.09;;;28.65;41.08
71194;BME280;58903;47.210;8.618;2023-09-19T09:56:04;94439.16;;;28.65;40.55
71194;BME280;58903;47.210;8.618;2023-09-19T09:58:51;94430.09;;;28.65;40.47
71194;BME280;58903;47.210;8.618;2023-09-19T10:01:21;94438.09;;;28.68;40.76
71194;BME280;58903;47.210;8.618;2023-09-19T10:04:06;94434.03;;;28.69;40.49
71194;BME280;58903;47.210;8.618;2023-09-19T10:06:43;94430.00;;;28.70;41.57
71194;BME280;58903;47.210;8.618;2023-09-19T10:09:22;94437.78;;;28.72;40.93
71194;BME280;58903;47.210;8.618;2023-09-19T10:12:21;94431.47;;;28.71;41.20
71194;BME280;58903;47.210;8.618;2023-09-19T10:15:00;94426.28;;;28.68;40.99
71194;BME280;58903;47.210;8.618;2023-09-19T10:17:48;94428.28;;;28.67;41.20
71194;BME280;58903;47.210;8.618;2023-09-19T10:20:16;94425.72;;;28.69;41.51
71194;BME280;58903;47.210;8.618;2023-09-19T10:23:08;94431.69;;;28.73;42.17
71194;BME280;58903;47.210;8.618;2023-09-19T10:25:40;94423.94;;;28.72;42.25
71194;BME280;58903;47.210;8.618;2023-09-19T10:28:11;94428.00;;;28.71;42.42
71194;BME280;58903;47.210;8.618;2023-09-19T10:30:50;94420.72;;;28.68;43.11
71194;BME280;58903;47.210;8.618;2023-09-19T10:33:21;94425.72;;;28.69;42.55
71194;BME280;58903;47.210;8.618;2023-09-19T10:35:53;94410.41;;;28.68;42.96
71194;BME280;58903;47.210;8.618;2023-09-19T10:38:50;94420.72;;;28.68;42.65
71194;BME280;58903;47.210;8.618;2023-09-19T10:41:34;94417.97;;;28.68;42.52
71194;BME280;58903;47.210;8.618;2023-09-19T10:44:28;94412.44;;;28.68;42.49
71194;BME280;58903;47.210;8.618;2023-09-19T10:47:18;94411.69;;;28.67;42.78
71194;BME280;58903;47.210;8.618;2023-09-19T10:49:46;94416.16;;;28.70;42.47
71194;BME280;58903;47.210;8.618;2023-09-19T10:52:39;94417.13;;;28.73;42.42
71194;BME280;58903;47.210;8.618;2023-09-19T10:55:16;94418.59;;;28.74;42.69
71194;BME280;58903;47.210;8.618;2023-09-19T10:57:53;94416.59;;;28.74;42.88
71194;BME280;58903;47.210;8.618;2023-09-19T11:00:56;94411.28;;;28.76;42.56
71194;BME280;58903;47.210;8.618;2023-09-19T11:03:25;94419.78;;;28.78;41.94
71194;BME280;58903;47.210;8.618;2023-09-19T11:06:10;94416.47;;;28.80;41.78
71194;BME280;58903;47.210;8.618;2023-09-19T11:08:57;94418.53;;;28.79;42.50
71194;BME280;58903;47.210;8.618;2023-09-19T11:25:41;94406.56;;;28.84;43.03
71194;BME280;58903;47.210;8.618;2023-09-19T11:30:50;94404.03;;;28.86;41.64
71194;BME280;58903;47.210;8.618;2023-09-19T11:33:34;94402.75;;;28.87;42.21
71194;BME280;58903;47.210;8.618;2023-09-19T11:43:51;94390.63;;;28.90;41.61
71194;BME280;58903;47.210;8.618;2023-09-19T11:46:21;94389.34;;;28.91;42.26
71194;BME280;58903;47.210;8.618;2023-09-19T11:49:06;94397.53;;;28.97;42.57
71194;BME280;58903;47.210;8.618;2023-09-19T11:51:43;94382.41;;;28.98;41.71
71194;BME280;58903;47.210;8.618;2023-09-19T11:54:13;94382.41;;;28.98;41.92
71194;BME280;58903;47.210;8.618;2023-09-19T11:56:53;94387.41;;;28.99;42.23
71194;BME280;58903;47.210;8.618;2023-09-19T11:59:26;94379.09;;;28.99;41.39
71194;BME280;58903;47.210;8.618;2023-09-19T12:02:01;94368.03;;;28.99;41.65
71194;BME280;58903;47.210;8.618;2023-09-19T12:04:57;94369.72;;;29.02;41.55
71194;BME280;58903;47.210;8.618;2023-09-19T12:07:26;94373.03;;;29.01;41.75
71194;BME280;58903;47.210;8.618;2023-09-19T12:10:14;94376.53;;;29.01;41.97
71194;BME280;58903;47.210;8.618;2023-09-19T12:12:52;94360.66;;;29.02;41.71
71194;BME280;58903;47.210;8.618;2023-09-19T12:15:23;94358.44;;;29.00;41.82
71194;BME280;58903;47.210;8.618;2023-09-19T12:17:54;94356.94;;;28.99;41.76
71194;BME280;58903;47.210;8.618;2023-09-19T12:20:20;94352.91;;;29.00;41.55
71194;BME280;58903;47.210;8.618;2023-09-19T12:22:49;94347.16;;;28.98;41.64
71194;BME280;58903;47.210;8.618;2023-09-19T12:25:52;94346.81;;;29.02;42.14
71194;BME280;58903;47.210;8.618;2023-09-19T12:28:26;94342.03;;;29.02;42.19
71194;BME280;58903;47.210;8.618;2023-09-19T12:31:08;94334.91;;;29.07;42.24
71194;BME280;58903;47.210;8.618;2023-09-19T12:33:36;94341.91;;;29.08;41.59
71194;BME280;58903;47.210;8.618;2023-09-19T12:36:22;94330.09;;;29.07;42.21
71194;BME280;58903;47.210;8.618;2023-09-19T12:39:06;94337.34;;;29.10;42.31
71194;BME280;58903;47.210;8.618;2023-09-19T12:41:39;94334.25;;;29.14;42.51
71194;BME280;58903;47.210;8.618;2023-09-19T12:44:24;94334.97;;;29.15;41.64
71194;BME280;58903;47.210;8.618;2023-09-19T12:47:09;94329.16;;;29.18;42.04
71194;BME280;58903;47.210;8.618;2023-09-19T12:53:04;94332.47;;;29.17;40.98
71194;BME280;58903;47.210;8.618;2023-09-19T12:55:38;94322.09;;;29.17;41.50
71194;BME280;58903;47.210;8.618;2023-09-19T12:58:28;94314.56;;;29.18;40.68
71194;BME280;58903;47.210;8.618;2023-09-19T13:00:58;94318.06;;;29.18;41.39
71194;BME280;58903;47.210;8.618;2023-09-19T13:03:30;94313.28;;;29.19;41.44
71194;BME280;58903;47.210;8.618;2023-09-19T13:06:02;94310.19;;;29.22;40.79
71194;BME280;58903;47.210;8.618;2023-09-19T13:08:34;94304.09;;;29.24;41.67
71194;BME280;58903;47.210;8.618;2023-09-19T13:15:10;94290.66;;;29.28;40.70
71194;BME280;58903;47.210;8.618;2023-09-19T13:18:16;94296.19;;;29.28;41.59
71194;BME280;58903;47.210;8.618;2023-09-19T13:21:08;94294.72;;;29.27;41.50
71194;BME280;58903;47.210;8.618;2023-09-19T13:24:25;94296.63;;;29.32;40.99
71194;BME280;58903;47.210;8.618;2023-09-19T13:26:56;94299.06;;;29.35;41.04
71194;BME280;58903;47.210;8.618;2023-09-19T13:29:31;94290.75;;;29.35;40.48
71194;BME280;58903;47.210;8.618;2023-09-19T13:31:58;94290.19;;;29.37;41.01
71194;BME280;58903;47.210;8.618;2023-09-19T13:37:47;94280.28;;;29.41;41.16
71194;BME280;58903;47.210;8.618;2023-09-19T13:40:17;94286.56;;;29.42;40.41
71194;BME280;58903;47.210;8.618;2023-09-19T13:42:57;94279.00;;;29.42;40.74
71194;BME280;58903;47.210;8.618;2023-09-19T13:45:31;94276.94;;;29.43;40.64
71194;BME280;58903;47.210;8.618;2023-09-19T13:48:08;94279.19;;;29.44;41.14
71194;BME280;58903;47.210;8.618;2023-09-19T13:50:42;94277.03;;;29.50;41.23
71194;BME280;58903;47.210;8.618;2023-09-19T13:53:39;94269.47;;;29.51;41.19
71194;BME280;58903;47.210;8.618;2023-09-19T13:56:14;94266.16;;;29.52;40.58
71194;BME280;58903;47.210;8.618;2023-09-19T13:58:42;94265.09;;;29.55;40.44
71194;BME280;58903;47.210;8.618;2023-09-19T14:01:10;94264.34;;;29.55;40.19
71194;BME280;58903;47.210;8.618;2023-09-19T14:03:41;94260.50;;;29.58;40.69
71194;BME280;58903;47.210;8.618;2023-09-19T14:06:18;94264.19;;;29.60;40.83
71194;BME280;58903;47.210;8.618;2023-09-19T14:08:44;94257.94;;;29.60;40.77
71194;BME280;58903;47.210;8.618;2023-09-19T14:11:26;94261.84;;;29.64;40.76
71194;BME280;58903;47.210;8.618;2023-09-19T14:13:56;94252.78;;;29.64;40.82
71194;BME280;58903;47.210;8.618;2023-09-19T14:16:23;94250.75;;;29.64;41.59
71194;BME280;58903;47.210;8.618;2023-09-19T14:18:55;94255.75;;;29.66;41.56
71194;BME280;58903;47.210;8.618;2023-09-19T14:21:22;94254.13;;;29.70;41.07
71194;BME280;58903;47.210;8.618;2023-09-19T14:23:53;94252.84;;;29.71;41.51
71194;BME280;58903;47.210;8.618;2023-09-19T14:26:22;94250.63;;;29.70;40.90
71194;BME280;58903;47.210;8.618;2023-09-19T14:29:19;94247.00;;;29.75;40.94
71194;BME280;58903;47.210;8.618;2023-09-19T14:31:59;94238.13;;;29.76;40.46
71194;BME280;58903;47.210;8.618;2023-09-19T14:35:03;94240.53;;;29.80;41.32
71194;BME280;58903;47.210;8.618;2023-09-19T14:37:30;94244.81;;;29.81;41.46
71194;BME280;58903;47.210;8.618;2023-09-19T14:39:58;94236.31;;;29.79;41.22
71194;BME280;58903;47.210;8.618;2023-09-19T14:42:25;94236.50;;;29.81;40.97
71194;BME280;58903;47.210;8.618;2023-09-19T14:45:01;94228.59;;;29.85;41.29
71194;BME280;58903;47.210;8.618;2023-09-19T14:47:47;94224.09;;;29.82;40.90
71194;BME280;58903;47.210;8.618;2023-09-19T14:50:14;94225.41;;;29.81;40.86
71194;BME280;58903;47.210;8.618;2023-09-19T14:52:50;94233.38;;;29.85;40.95
71194;BME280;58903;47.210;8.618;2023-09-19T14:55:27;94221.75;;;29.86;40.36
71194;BME280;58903;47.210;8.618;2023-09-19T14:58:03;94219.38;;;29.90;40.38